sensor_id;sensor_type;location;lat;lon;timestamp;P1;durP1;ratioP1;P2;durP2;ratioP2
78053;SDS011;67726;45.636;11.752;2024-01-15T00:02:07;106.78;;;48.22;;
78053;SDS011;67726;45.636;11.752;2024-01-15T00:04:37;106.80;;;48.30;;
78053;SDS011;67726;45.636;11.752;2024-01-15T00:07:03;106.15;;;46.67;;
78053;SDS011;67726;45.636;11.752;2024-01-15T00:09:29;99.45;;;45.33;;
78053;SDS011;67726;45.636;11.752;2024-01-15T00:11:55;116.85;;;50.72;;
78053;SDS011;67726;45.636;11.752;2024-01-15T00:14:22;131.40;;;54.10;;
78053;SDS011;67726;45.636;11.752;2024-01-15T00:16:48;124.70;;;54.13;;
78053;SDS011;67726;45.636;11.752;2024-01-15T00:19:16;128.07;;;52.28;;
78053;SDS011;67726;45.636;11.752;2024-01-15T00:21:42;117.25;;;53.28;;
78053;SDS011;67726;45.636;11.752;2024-01-15T00:24:08;109.28;;;48.85;;
78053;SDS011;67726;45.636;11.752;2024-01-15T00:26:34;114.28;;;52.60;;
78053;SDS011;67726;45.636;11.752;2024-01-15T00:29:00;114.77;;;49.97;;
78053;SDS011;67726;45.636;11.752;2024-01-15T00:31:26;116.45;;;50.80;;
78053;SDS011;67726;45.636;11.752;2024-01-15T00:33:54;106.47;;;49.45;;
78053;SDS011;67726;45.636;11.752;2024-01-15T00:36:20;103.50;;;50.80;;
78053;SDS011;67726;45.636;11.752;2024-01-15T00:38:46;100.85;;;47.08;;
78053;SDS011;67726;45.636;11.752;2024-01-15T00:41:13;110.47;;;49.07;;
78053;SDS011;67726;45.636;11.752;2024-01-15T00:43:39;109.55;;;48.78;;
78053;SDS011;67726;45.636;11.752;2024-01-15T00:46:05;108.35;;;49.90;;
78053;SDS011;67726;45.636;11.752;2024-01-15T00:48:32;110.85;;;49.33;;
78053;SDS011;67726;45.636;11.752;2024-01-15T00:50:58;103.88;;;48.92;;
78053;SDS011;67726;45.636;11.752;2024-01-15T00:53:25;109.03;;;50.03;;
78053;SDS011;67726;45.636;11.752;2024-01-15T00:55:51;122.43;;;52.35;;
78053;SDS011;67726;45.636;11.752;2024-01-15T00:58:18;124.40;;;51.58;;
78053;SDS011;67726;45.636;11.752;2024-01-15T01:00:44;113.80;;;50.33;;
78053;SDS011;67726;45.636;11.752;2024-01-15T01:03:10;114.38;;;51.75;;
78053;SDS011;67726;45.636;11.752;2024-01-15T01:05:36;108.57;;;49.40;;
78053;SDS011;67726;45.636;11.752;2024-01-15T01:08:02;108.45;;;51.15;;
78053;SDS011;67726;45.636;11.752;2024-01-15T01:10:28;113.78;;;48.67;;
78053;SDS011;67726;45.636;11.752;2024-01-15T01:12:55;106.50;;;49.20;;
78053;SDS011;67726;45.636;11.752;2024-01-15T01:15:21;102.10;;;49.55;;
78053;SDS011;67726;45.636;11.752;2024-01-15T01:17:47;104.57;;;48.63;;
78053;SDS011;67726;45.636;11.752;2024-01-15T01:20:13;103.25;;;48.15;;
78053;SDS011;67726;45.636;11.752;2024-01-15T01:22:40;118.25;;;50.38;;
78053;SDS011;67726;45.636;11.752;2024-01-15T01:25:06;107.47;;;49.70;;
78053;SDS011;67726;45.636;11.752;2024-01-15T01:27:32;101.50;;;49.38;;
78053;SDS011;67726;45.636;11.752;2024-01-15T01:29:58;103.03;;;46.03;;
78053;SDS011;67726;45.636;11.752;2024-01-15T01:32:25;105.25;;;50.55;;
78053;SDS011;67726;45.636;11.752;2024-01-15T01:34:51;112.32;;;50.70;;
78053;SDS011;67726;45.636;11.752;2024-01-15T01:37:17;108.15;;;49.67;;
78053;SDS011;67726;45.636;11.752;2024-01-15T01:39:43;112.95;;;48.65;;
78053;SDS011;67726;45.636;11.752;2024-01-15T01:42:09;105.00;;;51.03;;
78053;SDS011;67726;45.636;11.752;2024-01-15T01:44:35;111.85;;;48.40;;
78053;SDS011;67726;45.636;11.752;2024-01-15T01:47:01;110.78;;;48.58;;
78053;SDS011;67726;45.636;11.752;2024-01-15T01:49:28;111.13;;;49.10;;
78053;SDS011;67726;45.636;11.752;2024-01-15T01:51:56;101.70;;;48.17;;
78053;SDS011;67726;45.636;11.752;2024-01-15T01:54:22;104.90;;;48.87;;
78053;SDS011;67726;45.636;11.752;2024-01-15T01:56:48;99.07;;;45.97;;
78053;SDS011;67726;45.636;11.752;2024-01-15T01:59:15;110.65;;;48.97;;
78053;SDS011;67726;45.636;11.752;2024-01-15T02:01:42;106.38;;;48.42;;
78053;SDS011;67726;45.636;11.752;2024-01-15T02:04:08;110.22;;;49.58;;
78053;SDS011;67726;45.636;11.752;2024-01-15T02:06:34;107.00;;;48.67;;
78053;SDS011;67726;45.636;11.752;2024-01-15T02:09:01;106.82;;;47.85;;
78053;SDS011;67726;45.636;11.752;2024-01-15T02:11:27;109.88;;;50.58;;
78053;SDS011;67726;45.636;11.752;2024-01-15T02:13:53;106.85;;;49.65;;
78053;SDS011;67726;45.636;11.752;2024-01-15T02:16:20;110.53;;;49.80;;
78053;SDS011;67726;45.636;11.752;2024-01-15T02:18:46;106.43;;;48.53;;
78053;SDS011;67726;45.636;11.752;2024-01-15T02:21:12;112.60;;;50.35;;
78053;SDS011;67726;45.636;11.752;2024-01-15T02:23:38;108.32;;;49.75;;
78053;SDS011;67726;45.636;11.752;2024-01-15T02:26:05;110.97;;;50.10;;
78053;SDS011;67726;45.636;11.752;2024-01-15T02:28:31;105.72;;;48.13;;
78053;SDS011;67726;45.636;11.752;2024-01-15T02:30:58;106.67;;;46.90;;
78053;SDS011;67726;45.636;11.752;2024-01-15T02:33:24;113.88;;;50.35;;
78053;SDS011;67726;45.636;11.752;2024-01-15T02:35:50;104.25;;;46.92;;
78053;SDS011;67726;45.636;11.752;2024-01-15T02:38:16;104.95;;;49.78;;
78053;SDS011;67726;45.636;11.752;2024-01-15T02:40:43;106.38;;;47.10;;
78053;SDS011;67726;45.636;11.752;2024-01-15T02:43:09;107.33;;;46.90;;
78053;SDS011;67726;45.636;11.752;2024-01-15T02:45:36;108.00;;;49.83;;
78053;SDS011;67726;45.636;11.752;2024-01-15T02:48:02;104.25;;;48.50;;
78053;SDS011;67726;45.636;11.752;2024-01-15T02:50:28;109.10;;;49.65;;
78053;SDS011;67726;45.636;11.752;2024-01-15T02:52:54;109.53;;;48.00;;
78053;SDS011;67726;45.636;11.752;2024-01-15T02:55:20;110.93;;;48.37;;
78053;SDS011;67726;45.636;11.752;2024-01-15T02:57:46;113.18;;;50.75;;
78053;SDS011;67726;45.636;11.752;2024-01-15T03:00:12;113.68;;;50.75;;
78053;SDS011;67726;45.636;11.752;2024-01-15T03:02:39;118.32;;;52.60;;
78053;SDS011;67726;45.636;11.752;2024-01-15T03:05:08;108.85;;;51.30;;
78053;SDS011;67726;45.636;11.752;2024-01-15T03:07:34;116.50;;;51.47;;
78053;SDS011;67726;45.636;11.752;2024-01-15T03:10:00;109.28;;;49.50;;
78053;SDS011;67726;45.636;11.752;2024-01-15T03:12:26;112.15;;;50.15;;
78053;SDS011;67726;45.636;11.752;2024-01-15T03:14:52;110.97;;;48.65;;
78053;SDS011;67726;45.636;11.752;2024-01-15T03:17:18;118.03;;;50.65;;
78053;SDS011;67726;45.636;11.752;2024-01-15T03:19:44;110.03;;;47.60;;
78053;SDS011;67726;45.636;11.752;2024-01-15T03:22:10;111.53;;;49.95;;
78053;SDS011;67726;45.636;11.752;2024-01-15T03:24:36;103.60;;;47.78;;
78053;SDS011;67726;45.636;11.752;2024-01-15T03:27:02;115.90;;;51.63;;
78053;SDS011;67726;45.636;11.752;2024-01-15T03:29:29;115.47;;;49.33;;
78053;SDS011;67726;45.636;11.752;2024-01-15T03:31:55;117.00;;;50.83;;
78053;SDS011;67726;45.636;11.752;2024-01-15T03:34:21;107.10;;;49.33;;
78053;SDS011;67726;45.636;11.752;2024-01-15T03:36:47;109.50;;;51.13;;
78053;SDS011;67726;45.636;11.752;2024-01-15T03:39:13;115.68;;;49.47;;
78053;SDS011;67726;45.636;11.752;2024-01-15T03:41:39;123.03;;;50.65;;
78053;SDS011;67726;45.636;11.752;2024-01-15T03:44:05;113.00;;;49.97;;
78053;SDS011;67726;45.636;11.752;2024-01-15T03:46:31;99.70;;;46.50;;
78053;SDS011;67726;45.636;11.752;2024-01-15T03:48:57;105.53;;;47.67;;
78053;SDS011;67726;45.636;11.752;2024-01-15T03:51:23;114.47;;;49.60;;
78053;SDS011;67726;45.636;11.752;2024-01-15T03:53:49;103.57;;;47.80;;
78053;SDS011;67726;45.636;11.752;2024-01-15T03:56:15;116.90;;;48.77;;
78053;SDS011;67726;45.636;11.752;2024-01-15T03:58:41;108.90;;;46.63;;
78053;SDS011;67726;45.636;11.752;2024-01-15T04:01:07;113.35;;;49.00;;
78053;SDS011;67726;45.636;11.752;2024-01-15T04:03:33;117.22;;;52.35;;
78053;SDS011;67726;45.636;11.752;2024-01-15T04:05:59;112.80;;;48.83;;
78053;SDS011;67726;45.636;11.752;2024-01-15T04:08:25;114.40;;;49.07;;
78053;SDS011;67726;45.636;11.752;2024-01-15T04:10:51;108.65;;;46.90;;
78053;SDS011;67726;45.636;11.752;2024-01-15T04:13:17;108.38;;;46.45;;
78053;SDS011;67726;45.636;11.752;2024-01-15T04:15:43;106.72;;;46.83;;
78053;SDS011;67726;45.636;11.752;2024-01-15T04:18:09;109.65;;;48.50;;
78053;SDS011;67726;45.636;11.752;2024-01-15T04:20:35;106.80;;;47.37;;
78053;SDS011;67726;45.636;11.752;2024-01-15T04:23:02;109.43;;;48.92;;
78053;SDS011;67726;45.636;11.752;2024-01-15T04:25:28;113.47;;;48.95;;
78053;SDS011;67726;45.636;11.752;2024-01-15T04:27:54;112.82;;;48.05;;
78053;SDS011;67726;45.636;11.752;2024-01-15T04:30:20;110.60;;;50.07;;
78053;SDS011;67726;45.636;11.752;2024-01-15T04:32:46;114.77;;;47.87;;
78053;SDS011;67726;45.636;11.752;2024-01-15T04:35:12;110.85;;;47.85;;
78053;SDS011;67726;45.636;11.752;2024-01-15T04:37:38;106.78;;;48.08;;
78053;SDS011;67726;45.636;11.752;2024-01-15T04:40:04;105.13;;;48.13;;
78053;SDS011;67726;45.636;11.752;2024-01-15T04:42:30;107.32;;;48.28;;
78053;SDS011;67726;45.636;11.752;2024-01-15T04:44:56;107.67;;;47.17;;
78053;SDS011;67726;45.636;11.752;2024-01-15T04:47:22;109.88;;;49.25;;
78053;SDS011;67726;45.636;11.752;2024-01-15T04:49:48;110.53;;;47.30;;
78053;SDS011;67726;45.636;11.752;2024-01-15T04:52:14;115.07;;;48.88;;
78053;SDS011;67726;45.636;11.752;2024-01-15T04:54:40;115.70;;;53.22;;
78053;SDS011;67726;45.636;11.752;2024-01-15T04:57:06;127.30;;;51.37;;
78053;SDS011;67726;45.636;11.752;2024-01-15T04:59:32;102.13;;;45.70;;
78053;SDS011;67726;45.636;11.752;2024-01-15T05:01:58;115.85;;;47.70;;
78053;SDS011;67726;45.636;11.752;2024-01-15T05:04:24;118.47;;;48.90;;
78053;SDS011;67726;45.636;11.752;2024-01-15T05:06:50;110.32;;;49.42;;
78053;SDS011;67726;45.636;11.752;2024-01-15T05:09:16;115.03;;;46.63;;
78053;SDS011;67726;45.636;11.752;2024-01-15T05:11:43;117.18;;;48.25;;
78053;SDS011;67726;45.636;11.752;2024-01-15T05:14:09;107.40;;;47.55;;
78053;SDS011;67726;45.636;11.752;2024-01-15T05:16:35;107.43;;;49.17;;
78053;SDS011;67726;45.636;11.752;2024-01-15T05:19:03;106.97;;;47.15;;
78053;SDS011;67726;45.636;11.752;2024-01-15T05:21:29;107.33;;;46.73;;
78053;SDS011;67726;45.636;11.752;2024-01-15T05:23:55;122.55;;;53.78;;
78053;SDS011;67726;45.636;11.752;2024-01-15T05:26:21;109.38;;;48.20;;
78053;SDS011;67726;45.636;11.752;2024-01-15T05:28:48;111.90;;;47.33;;
78053;SDS011;67726;45.636;11.752;2024-01-15T05:31:14;116.35;;;50.17;;
78053;SDS011;67726;45.636;11.752;2024-01-15T05:33:40;97.00;;;44.47;;
78053;SDS011;67726;45.636;11.752;2024-01-15T05:36:06;102.70;;;44.58;;
78053;SDS011;67726;45.636;11.752;2024-01-15T05:38:32;105.82;;;42.83;;
78053;SDS011;67726;45.636;11.752;2024-01-15T05:40:58;104.60;;;42.42;;
78053;SDS011;67726;45.636;11.752;2024-01-15T05:43:24;102.68;;;43.47;;
78053;SDS011;67726;45.636;11.752;2024-01-15T05:45:50;98.03;;;42.20;;
78053;SDS011;67726;45.636;11.752;2024-01-15T05:48:16;103.78;;;42.08;;
78053;SDS011;67726;45.636;11.752;2024-01-15T05:50:42;98.60;;;41.22;;
78053;SDS011;67726;45.636;11.752;2024-01-15T05:53:08;93.53;;;38.70;;
78053;SDS011;67726;45.636;11.752;2024-01-15T05:55:36;97.22;;;40.42;;
78053;SDS011;67726;45.636;11.752;2024-01-15T05:58:03;98.00;;;40.93;;
78053;SDS011;67726;45.636;11.752;2024-01-15T06:00:29;96.72;;;39.92;;
78053;SDS011;67726;45.636;11.752;2024-01-15T06:02:55;91.88;;;40.63;;
78053;SDS011;67726;45.636;11.752;2024-01-15T06:05:21;90.00;;;38.28;;
78053;SDS011;67726;45.636;11.752;2024-01-15T06:07:47;99.53;;;37.97;;
78053;SDS011;67726;45.636;11.752;2024-01-15T06:10:13;87.50;;;36.70;;
78053;SDS011;67726;45.636;11.752;2024-01-15T06:12:39;79.18;;;35.80;;
78053;SDS011;67726;45.636;11.752;2024-01-15T06:15:05;85.13;;;34.63;;
78053;SDS011;67726;45.636;11.752;2024-01-15T06:17:31;86.38;;;36.08;;
78053;SDS011;67726;45.636;11.752;2024-01-15T06:19:58;89.47;;;37.00;;
78053;SDS011;67726;45.636;11.752;2024-01-15T06:22:24;89.43;;;35.63;;
78053;SDS011;67726;45.636;11.752;2024-01-15T06:24:50;90.40;;;38.38;;
78053;SDS011;67726;45.636;11.752;2024-01-15T06:27:16;100.03;;;39.38;;
78053;SDS011;67726;45.636;11.752;2024-01-15T06:29:44;89.03;;;39.20;;
78053;SDS011;67726;45.636;11.752;2024-01-15T06:32:12;91.75;;;38.35;;
78053;SDS011;67726;45.636;11.752;2024-01-15T06:34:38;94.93;;;38.57;;
78053;SDS011;67726;45.636;11.752;2024-01-15T06:37:04;89.50;;;36.35;;
78053;SDS011;67726;45.636;11.752;2024-01-15T06:39:30;93.53;;;36.78;;
78053;SDS011;67726;45.636;11.752;2024-01-15T06:41:56;98.15;;;38.53;;
78053;SDS011;67726;45.636;11.752;2024-01-15T06:44:22;92.47;;;37.10;;
78053;SDS011;67726;45.636;11.752;2024-01-15T06:46:48;84.00;;;37.00;;
78053;SDS011;67726;45.636;11.752;2024-01-15T06:49:14;91.60;;;37.63;;
78053;SDS011;67726;45.636;11.752;2024-01-15T06:51:41;86.45;;;36.78;;
78053;SDS011;67726;45.636;11.752;2024-01-15T06:54:07;98.25;;;37.47;;
78053;SDS011;67726;45.636;11.752;2024-01-15T06:56:33;86.60;;;37.70;;
78053;SDS011;67726;45.636;11.752;2024-01-15T06:58:59;97.90;;;40.30;;
78053;SDS011;67726;45.636;11.752;2024-01-15T07:01:25;97.47;;;39.42;;
78053;SDS011;67726;45.636;11.752;2024-01-15T07:03:51;102.05;;;40.67;;
78053;SDS011;67726;45.636;11.752;2024-01-15T07:06:17;74.95;;;35.88;;
78053;SDS011;67726;45.636;11.752;2024-01-15T07:08:43;89.50;;;38.03;;
78053;SDS011;67726;45.636;11.752;2024-01-15T07:11:09;93.67;;;38.73;;
78053;SDS011;67726;45.636;11.752;2024-01-15T07:13:36;92.35;;;37.72;;
78053;SDS011;67726;45.636;11.752;2024-01-15T07:16:02;91.05;;;38.83;;
78053;SDS011;67726;45.636;11.752;2024-01-15T07:18:29;87.40;;;36.42;;
78053;SDS011;67726;45.636;11.752;2024-01-15T07:20:55;98.05;;;38.47;;
78053;SDS011;67726;45.636;11.752;2024-01-15T07:23:21;88.60;;;36.90;;
78053;SDS011;67726;45.636;11.752;2024-01-15T07:25:47;88.90;;;37.08;;
78053;SDS011;67726;45.636;11.752;2024-01-15T07:28:13;94.65;;;38.95;;
78053;SDS011;67726;45.636;11.752;2024-01-15T07:30:39;85.65;;;33.70;;
78053;SDS011;67726;45.636;11.752;2024-01-15T07:33:05;97.13;;;41.90;;
78053;SDS011;67726;45.636;11.752;2024-01-15T07:35:31;93.37;;;42.00;;
78053;SDS011;67726;45.636;11.752;2024-01-15T07:37:57;96.78;;;41.03;;
78053;SDS011;67726;45.636;11.752;2024-01-15T07:40:23;86.00;;;38.92;;
78053;SDS011;67726;45.636;11.752;2024-01-15T07:42:50;86.60;;;39.63;;
78053;SDS011;67726;45.636;11.752;2024-01-15T07:45:16;78.82;;;36.10;;
78053;SDS011;67726;45.636;11.752;2024-01-15T07:47:42;83.77;;;36.40;;
78053;SDS011;67726;45.636;11.752;2024-01-15T07:50:08;83.03;;;37.00;;
78053;SDS011;67726;45.636;11.752;2024-01-15T07:52:34;83.97;;;38.25;;
78053;SDS011;67726;45.636;11.752;2024-01-15T07:55:00;84.28;;;37.72;;
78053;SDS011;67726;45.636;11.752;2024-01-15T07:57:28;76.28;;;35.67;;
78053;SDS011;67726;45.636;11.752;2024-01-15T07:59:54;79.37;;;36.37;;
78053;SDS011;67726;45.636;11.752;2024-01-15T08:02:20;74.38;;;32.63;;
78053;SDS011;67726;45.636;11.752;2024-01-15T08:04:47;76.70;;;34.50;;
78053;SDS011;67726;45.636;11.752;2024-01-15T08:07:13;71.13;;;33.45;;
78053;SDS011;67726;45.636;11.752;2024-01-15T08:09:39;74.88;;;32.58;;
78053;SDS011;67726;45.636;11.752;2024-01-15T08:12:05;72.83;;;33.03;;
78053;SDS011;67726;45.636;11.752;2024-01-15T08:14:31;75.47;;;33.17;;
78053;SDS011;67726;45.636;11.752;2024-01-15T08:16:57;76.28;;;32.58;;
78053;SDS011;67726;45.636;11.752;2024-01-15T08:19:23;73.10;;;33.63;;
78053;SDS011;67726;45.636;11.752;2024-01-15T08:21:49;68.60;;;31.30;;
78053;SDS011;67726;45.636;11.752;2024-01-15T08:24:16;64.90;;;30.30;;
78053;SDS011;67726;45.636;11.752;2024-01-15T08:26:42;71.72;;;31.10;;
78053;SDS011;67726;45.636;11.752;2024-01-15T08:29:08;63.92;;;29.83;;
78053;SDS011;67726;45.636;11.752;2024-01-15T08:31:34;72.00;;;33.13;;
78053;SDS011;67726;45.636;11.752;2024-01-15T08:34:00;71.03;;;31.90;;
78053;SDS011;67726;45.636;11.752;2024-01-15T08:36:27;75.30;;;33.03;;
78053;SDS011;67726;45.636;11.752;2024-01-15T08:38:54;72.40;;;33.35;;
78053;SDS011;67726;45.636;11.752;2024-01-15T08:41:20;74.47;;;32.65;;
78053;SDS011;67726;45.636;11.752;2024-01-15T08:43:46;76.30;;;34.38;;
78053;SDS011;67726;45.636;11.752;2024-01-15T08:46:12;73.53;;;32.00;;
78053;SDS011;67726;45.636;11.752;2024-01-15T08:48:39;74.60;;;34.63;;
78053;SDS011;67726;45.636;11.752;2024-01-15T08:51:05;72.00;;;33.55;;
78053;SDS011;67726;45.636;11.752;2024-01-15T08:53:31;75.25;;;34.70;;
78053;SDS011;67726;45.636;11.752;2024-01-15T08:55:57;72.70;;;34.47;;
78053;SDS011;67726;45.636;11.752;2024-01-15T08:58:24;76.60;;;35.90;;
78053;SDS011;67726;45.636;11.752;2024-01-15T09:00:50;77.30;;;36.57;;
78053;SDS011;67726;45.636;11.752;2024-01-15T09:03:16;78.03;;;35.10;;
78053;SDS011;67726;45.636;11.752;2024-01-15T09:05:42;74.75;;;34.00;;
78053;SDS011;67726;45.636;11.752;2024-01-15T09:08:08;73.45;;;35.13;;
78053;SDS011;67726;45.636;11.752;2024-01-15T09:10:35;69.38;;;33.53;;
78053;SDS011;67726;45.636;11.752;2024-01-15T09:13:01;67.63;;;33.57;;
78053;SDS011;67726;45.636;11.752;2024-01-15T09:15:29;63.55;;;31.75;;
78053;SDS011;67726;45.636;11.752;2024-01-15T09:17:55;66.63;;;31.35;;
78053;SDS011;67726;45.636;11.752;2024-01-15T09:20:23;66.20;;;33.17;;
78053;SDS011;67726;45.636;11.752;2024-01-15T09:22:51;65.53;;;30.63;;
78053;SDS011;67726;45.636;11.752;2024-01-15T09:25:17;68.23;;;32.63;;
78053;SDS011;67726;45.636;11.752;2024-01-15T09:27:44;64.82;;;31.15;;
78053;SDS011;67726;45.636;11.752;2024-01-15T09:30:10;65.22;;;32.58;;
78053;SDS011;67726;45.636;11.752;2024-01-15T09:32:36;67.32;;;33.67;;
78053;SDS011;67726;45.636;11.752;2024-01-15T09:35:02;62.90;;;30.55;;
78053;SDS011;67726;45.636;11.752;2024-01-15T09:37:28;62.53;;;30.60;;
78053;SDS011;67726;45.636;11.752;2024-01-15T09:39:54;56.72;;;28.60;;
78053;SDS011;67726;45.636;11.752;2024-01-15T09:42:23;54.58;;;25.90;;
78053;SDS011;67726;45.636;11.752;2024-01-15T09:44:51;51.33;;;27.40;;
78053;SDS011;67726;45.636;11.752;2024-01-15T09:47:17;55.65;;;26.48;;
78053;SDS011;67726;45.636;11.752;2024-01-15T09:49:43;54.63;;;28.23;;
78053;SDS011;67726;45.636;11.752;2024-01-15T09:52:10;72.53;;;33.55;;
78053;SDS011;67726;45.636;11.752;2024-01-15T09:54:37;71.03;;;33.22;;
78053;SDS011;67726;45.636;11.752;2024-01-15T09:57:04;71.03;;;33.38;;
78053;SDS011;67726;45.636;11.752;2024-01-15T09:59:30;62.20;;;30.08;;
78053;SDS011;67726;45.636;11.752;2024-01-15T10:01:56;62.57;;;29.90;;
78053;SDS011;67726;45.636;11.752;2024-01-15T10:04:23;60.60;;;30.10;;
78053;SDS011;67726;45.636;11.752;2024-01-15T10:06:50;59.55;;;29.88;;
78053;SDS011;67726;45.636;11.752;2024-01-15T10:09:17;67.82;;;32.72;;
78053;SDS011;67726;45.636;11.752;2024-01-15T10:11:43;58.35;;;29.63;;
78053;SDS011;67726;45.636;11.752;2024-01-15T10:14:10;53.63;;;29.77;;
78053;SDS011;67726;45.636;11.752;2024-01-15T10:16:39;57.85;;;30.27;;
78053;SDS011;67726;45.636;11.752;2024-01-15T10:19:05;53.45;;;28.70;;
78053;SDS011;67726;45.636;11.752;2024-01-15T10:21:32;76.50;;;35.45;;
78053;SDS011;67726;45.636;11.752;2024-01-15T10:24:02;86.97;;;37.83;;
78053;SDS011;67726;45.636;11.752;2024-01-15T10:26:28;64.77;;;32.70;;
78053;SDS011;67726;45.636;11.752;2024-01-15T10:28:54;59.47;;;31.73;;
78053;SDS011;67726;45.636;11.752;2024-01-15T10:31:20;62.50;;;31.45;;
78053;SDS011;67726;45.636;11.752;2024-01-15T10:33:49;64.07;;;32.40;;
78053;SDS011;67726;45.636;11.752;2024-01-15T10:36:15;57.97;;;30.40;;
78053;SDS011;67726;45.636;11.752;2024-01-15T10:38:45;65.00;;;31.80;;
78053;SDS011;67726;45.636;11.752;2024-01-15T10:41:12;66.50;;;32.95;;
78053;SDS011;67726;45.636;11.752;2024-01-15T10:43:38;59.08;;;31.13;;
78053;SDS011;67726;45.636;11.752;2024-01-15T10:46:07;59.28;;;31.02;;
78053;SDS011;67726;45.636;11.752;2024-01-15T10:48:34;57.47;;;30.50;;
78053;SDS011;67726;45.636;11.752;2024-01-15T10:51:01;58.67;;;31.80;;
78053;SDS011;67726;45.636;11.752;2024-01-15T10:53:35;55.22;;;29.45;;
78053;SDS011;67726;45.636;11.752;2024-01-15T10:56:01;60.28;;;31.50;;
78053;SDS011;67726;45.636;11.752;2024-01-15T10:58:28;57.20;;;30.77;;
78053;SDS011;67726;45.636;11.752;2024-01-15T11:00:57;58.25;;;31.00;;
78053;SDS011;67726;45.636;11.752;2024-01-15T11:03:23;58.33;;;30.93;;
78053;SDS011;67726;45.636;11.752;2024-01-15T11:05:49;60.88;;;31.98;;
78053;SDS011;67726;45.636;11.752;2024-01-15T11:08:16;60.58;;;32.38;;
78053;SDS011;67726;45.636;11.752;2024-01-15T11:10:53;58.17;;;30.88;;
78053;SDS011;67726;45.636;11.752;2024-01-15T11:13:39;56.30;;;31.50;;
78053;SDS011;67726;45.636;11.752;2024-01-15T11:16:06;57.67;;;30.33;;
78053;SDS011;67726;45.636;11.752;2024-01-15T11:18:36;57.72;;;30.10;;
78053;SDS011;67726;45.636;11.752;2024-01-15T11:23:48;52.72;;;30.15;;
78053;SDS011;67726;45.636;11.752;2024-01-15T11:26:30;53.63;;;28.92;;
78053;SDS011;67726;45.636;11.752;2024-01-15T11:28:57;56.63;;;29.83;;
78053;SDS011;67726;45.636;11.752;2024-01-15T11:33:54;55.78;;;30.50;;
78053;SDS011;67726;45.636;11.752;2024-01-15T11:36:21;57.47;;;30.75;;
78053;SDS011;67726;45.636;11.752;2024-01-15T11:38:47;55.60;;;31.02;;
78053;SDS011;67726;45.636;11.752;2024-01-15T11:41:14;55.77;;;29.47;;
78053;SDS011;67726;45.636;11.752;2024-01-15T11:43:41;60.03;;;31.58;;
78053;SDS011;67726;45.636;11.752;2024-01-15T11:46:10;57.28;;;30.60;;
78053;SDS011;67726;45.636;11.752;2024-01-15T11:48:43;56.97;;;30.73;;
78053;SDS011;67726;45.636;11.752;2024-01-15T11:51:11;63.00;;;31.67;;
78053;SDS011;67726;45.636;11.752;2024-01-15T11:53:45;57.07;;;31.30;;
78053;SDS011;67726;45.636;11.752;2024-01-15T11:56:15;61.70;;;32.50;;
78053;SDS011;67726;45.636;11.752;2024-01-15T11:58:42;58.47;;;30.80;;
78053;SDS011;67726;45.636;11.752;2024-01-15T12:01:08;63.38;;;31.20;;
78053;SDS011;67726;45.636;11.752;2024-01-15T12:03:34;62.67;;;31.30;;
78053;SDS011;67726;45.636;11.752;2024-01-15T12:06:00;63.63;;;30.20;;
78053;SDS011;67726;45.636;11.752;2024-01-15T12:08:27;59.92;;;30.42;;
78053;SDS011;67726;45.636;11.752;2024-01-15T12:10:53;58.35;;;30.75;;
78053;SDS011;67726;45.636;11.752;2024-01-15T12:13:19;62.67;;;30.65;;
78053;SDS011;67726;45.636;11.752;2024-01-15T12:15:46;62.05;;;30.75;;
78053;SDS011;67726;45.636;11.752;2024-01-15T12:18:14;64.83;;;33.40;;
78053;SDS011;67726;45.636;11.752;2024-01-15T12:20:40;66.38;;;34.38;;
78053;SDS011;67726;45.636;11.752;2024-01-15T12:23:07;66.88;;;33.08;;
78053;SDS011;67726;45.636;11.752;2024-01-15T12:25:33;61.65;;;32.55;;
78053;SDS011;67726;45.636;11.752;2024-01-15T12:28:00;66.93;;;33.05;;
78053;SDS011;67726;45.636;11.752;2024-01-15T12:30:27;65.90;;;33.20;;
78053;SDS011;67726;45.636;11.752;2024-01-15T12:32:53;68.22;;;33.53;;
78053;SDS011;67726;45.636;11.752;2024-01-15T12:35:20;65.15;;;31.98;;
78053;SDS011;67726;45.636;11.752;2024-01-15T12:37:47;67.47;;;32.70;;
78053;SDS011;67726;45.636;11.752;2024-01-15T12:40:13;59.35;;;31.13;;
78053;SDS011;67726;45.636;11.752;2024-01-15T12:42:40;69.03;;;32.07;;
78053;SDS011;67726;45.636;11.752;2024-01-15T12:45:06;65.20;;;31.88;;
78053;SDS011;67726;45.636;11.752;2024-01-15T12:47:33;63.33;;;31.70;;
78053;SDS011;67726;45.636;11.752;2024-01-15T12:49:59;65.22;;;34.10;;
78053;SDS011;67726;45.636;11.752;2024-01-15T12:52:28;64.78;;;32.50;;
78053;SDS011;67726;45.636;11.752;2024-01-15T12:54:55;62.27;;;31.93;;
78053;SDS011;67726;45.636;11.752;2024-01-15T12:57:21;61.42;;;31.15;;
78053;SDS011;67726;45.636;11.752;2024-01-15T12:59:49;62.60;;;31.27;;
78053;SDS011;67726;45.636;11.752;2024-01-15T13:02:15;59.90;;;31.00;;
78053;SDS011;67726;45.636;11.752;2024-01-15T13:04:41;63.78;;;31.00;;
78053;SDS011;67726;45.636;11.752;2024-01-15T13:07:08;56.70;;;31.13;;
78053;SDS011;67726;45.636;11.752;2024-01-15T13:09:34;57.28;;;29.95;;
78053;SDS011;67726;45.636;11.752;2024-01-15T13:12:03;65.57;;;32.47;;
78053;SDS011;67726;45.636;11.752;2024-01-15T13:14:30;62.10;;;30.38;;
78053;SDS011;67726;45.636;11.752;2024-01-15T13:16:58;57.72;;;30.05;;
78053;SDS011;67726;45.636;11.752;2024-01-15T13:19:24;58.40;;;30.53;;
78053;SDS011;67726;45.636;11.752;2024-01-15T13:21:50;62.22;;;31.13;;
78053;SDS011;67726;45.636;11.752;2024-01-15T13:24:17;55.70;;;30.55;;
78053;SDS011;67726;45.636;11.752;2024-01-15T13:26:43;52.17;;;27.65;;
78053;SDS011;67726;45.636;11.752;2024-01-15T13:29:09;55.15;;;30.50;;
78053;SDS011;67726;45.636;11.752;2024-01-15T13:31:35;58.43;;;29.77;;
78053;SDS011;67726;45.636;11.752;2024-01-15T13:34:01;59.88;;;31.42;;
78053;SDS011;67726;45.636;11.752;2024-01-15T13:36:28;60.97;;;30.95;;
78053;SDS011;67726;45.636;11.752;2024-01-15T13:38:54;56.33;;;29.33;;
78053;SDS011;67726;45.636;11.752;2024-01-15T13:41:20;59.28;;;30.70;;
78053;SDS011;67726;45.636;11.752;2024-01-15T13:43:55;57.10;;;29.43;;
78053;SDS011;67726;45.636;11.752;2024-01-15T13:46:23;66.80;;;33.75;;
78053;SDS011;67726;45.636;11.752;2024-01-15T13:48:49;55.95;;;30.08;;
78053;SDS011;67726;45.636;11.752;2024-01-15T13:51:15;56.42;;;30.88;;
78053;SDS011;67726;45.636;11.752;2024-01-15T13:53:41;60.90;;;32.13;;
78053;SDS011;67726;45.636;11.752;2024-01-15T13:56:07;56.93;;;30.27;;
78053;SDS011;67726;45.636;11.752;2024-01-15T13:58:35;59.15;;;31.27;;
78053;SDS011;67726;45.636;11.752;2024-01-15T14:01:01;59.03;;;30.13;;
78053;SDS011;67726;45.636;11.752;2024-01-15T14:03:31;57.33;;;30.35;;
78053;SDS011;67726;45.636;11.752;2024-01-15T14:05:57;54.70;;;30.08;;